Time;durP1;ratioP1;P1;durP2;ratioP2;P2;SDS_P1;SDS_P2;PMS_P1;PMS_P2;Temp;Humidity;BMP_temperature;BMP_pressure;BME280_temperature;BME280_humidity;BME280_pressure;Samples;Min_cycle;Max_cycle;Signal;HPM_P1;HPM_P2
2022/11/25 00:01:06;;;;;;;19.65;8.45;;;;;;;28.51;76.24;101000.50;5085866;27;70258;-31
2022/11/25 00:03:38;;;;;;;17.20;7.70;;;;;;;28.57;76.54;100990.75;5090499;27;65996;-31
2022/11/25 00:06:21;;;;;;;24.98;8.57;;;;;;;28.48;76.62;100977.44;5084661;27;69009;-32
2022/11/25 00:08:58;;;;;;;51.20;10.00;;;;;;;28.63;77.41;100993.47;5084646;27;65983;-33
2022/11/25 00:11:30;;;;;;;38.58;9.65;;;;;;;28.51;77.23;100971.63;5088620;27;69655;-33
2022/11/25 00:14:01;;;;;;;26.38;8.73;;;;;;;28.68;77.33;100995.56;5087326;27;66882;-32
2022/11/25 00:16:33;;;;;;;34.70;9.43;;;;;;;28.71;78.64;101011.34;5092134;27;69271;-33
2022/11/25 00:19:05;;;;;;;18.75;9.45;;;;;;;28.66;78.97;101005.72;5084223;27;66670;-33
2022/11/25 00:21:37;;;;;;;15.18;9.05;;;;;;;28.66;79.10;101019.22;5086497;27;70012;-33
2022/11/25 00:24:08;;;;;;;16.08;9.48;;;;;;;28.69;76.77;101018.81;5084372;27;65336;-33
2022/11/25 00:26:39;;;;;;;11.23;8.30;;;;;;;28.69;77.98;101008.84;5083919;27;70915;-33
2022/11/25 00:29:13;;;;;;;16.45;8.27;;;;;;;28.72;78.18;101023.81;5090038;27;65276;-32
2022/11/25 00:31:44;;;;;;;17.02;8.20;;;;;;;28.66;77.77;101019.22;5086508;27;70159;-32
2022/11/25 00:34:16;;;;;;;11.82;7.78;;;;;;;28.66;77.62;101013.81;5086008;27;66604;-32
2022/11/25 00:36:47;;;;;;;9.70;7.05;;;;;;;28.71;75.53;101022.97;5082617;27;70153;-34
2022/11/25 00:39:23;;;;;;;7.13;6.47;;;;;;;28.80;74.60;101044.41;5086671;27;66250;-33
2022/11/25 00:44:44;;;;;;;6.95;6.03;;;;;;;28.85;73.73;101050.84;5082541;27;66458;-32
2022/11/25 00:47:18;;;;;;;6.00;5.63;;;;;;;28.52;73.21;101002.16;5083916;27;70148;-33
2022/11/25 00:49:53;;;;;;;6.72;6.05;;;;;;;28.81;72.99;101044.22;5085976;27;65640;-31
2022/11/25 00:52:26;;;;;;;6.63;6.13;;;;;;;28.33;72.97;100965.91;5086281;27;70632;-33
2022/11/25 00:54:58;;;;;;;5.80;5.38;;;;;;;28.90;73.52;101058.34;5086345;27;66659;-32
2022/11/25 00:57:30;;;;;;;6.18;5.65;;;;;;;29.00;73.29;101074.16;5088373;27;69319;-36
2022/11/25 01:00:01;;;;;;;7.00;5.38;;;;;;;29.00;73.36;101068.75;5082111;27;65569;-33
2022/11/25 01:02:33;;;;;;;5.25;4.75;;;;;;;29.02;72.66;101075.63;5085586;27;69611;-33
2022/11/25 01:05:05;;;;;;;5.53;5.13;;;;;;;28.91;72.59;101052.75;5085141;27;66059;-33
2022/11/25 01:07:36;;;;;;;5.35;4.95;;;;;;;29.01;72.85;101073.16;5087615;27;69337;-33
2022/11/25 01:10:08;;;;;;;5.97;5.47;;;;;;;29.07;72.21;101072.34;5087592;27;65378;-32
2022/11/25 01:12:39;;;;;;;7.00;5.63;;;;;;;29.07;72.51;101077.75;5090655;27;69935;-31
2022/11/25 01:15:11;;;;;;;6.37;5.73;;;;;;;28.97;72.06;101064.59;5088350;27;65532;-32
2022/11/25 01:17:42;;;;;;;7.03;6.05;;;;;;;29.06;72.26;101079.63;5087758;27;69123;-33
2022/11/25 01:20:16;;;;;;;5.43;5.13;;;;;;;28.63;72.52;100998.03;5081728;27;65711;-32
2022/11/25 01:22:47;;;;;;;5.78;5.18;;;;;;;29.14;72.60;101075.91;5087925;27;70190;-32
2022/11/25 01:25:18;;;;;;;5.30;4.95;;;;;;;29.15;72.09;101082.97;5085261;27;65178;-34
2022/11/25 01:27:50;;;;;;;6.10;5.70;;;;;;;29.10;72.45;101074.66;5086095;27;69036;-37
2022/11/25 01:30:21;;;;;;;6.30;5.80;;;;;;;29.04;72.51;101065.50;5084625;27;65292;-33
2022/11/25 01:32:55;;;;;;;6.15;5.82;;;;;;;29.18;72.10;101090.69;5081057;27;70493;-34
2022/11/25 01:35:28;;;;;;;7.20;6.35;;;;;;;29.21;72.23;101095.66;5087119;27;65895;-34
2022/11/25 01:38:04;;;;;;;7.15;6.65;;;;;;;29.23;72.29;101106.28;5088767;27;69590;-33
2022/11/25 01:40:35;;;;;;;6.55;6.15;;;;;;;29.23;72.10;101106.28;5081047;27;66006;-34
2022/11/25 01:43:14;;;;;;;6.13;5.63;;;;;;;29.23;71.96;101109.81;5088050;27;70301;-35
2022/11/25 01:45:45;;;;;;;5.90;5.60;;;;;;;29.27;71.71;101118.34;5089471;27;66429;-34
2022/11/25 01:48:28;;;;;;;6.10;5.70;;;;;;;29.29;71.50;101116.28;5088853;27;70107;-36
2022/11/25 01:50:59;;;;;;;6.03;5.63;;;;;;;29.18;71.75;101087.97;5084433;27;66508;-34
2022/11/25 01:53:32;;;;;;;5.20;4.90;;;;;;;29.30;71.52;101121.44;5084831;27;70318;-34
2022/11/25 01:56:04;;;;;;;6.80;6.40;;;;;;;29.31;71.74;101115.03;5082085;27;65824;-34
2022/11/25 01:58:37;;;;;;;5.88;5.45;;;;;;;29.33;71.75;101107.53;5082289;27;69480;-35
2022/11/25 02:01:10;;;;;;;6.10;5.70;;;;;;;29.35;71.04;101127.09;5083555;27;66107;-34
2022/11/25 02:03:46;;;;;;;6.63;5.13;;;;;;;29.39;71.00;101117.53;5085481;27;69702;-35
2022/11/25 02:06:23;;;;;;;5.72;5.43;;;;;;;29.12;71.18;101080.69;5089255;27;66956;-33
2022/11/25 02:09:04;;;;;;;5.78;5.47;;;;;;;29.28;70.83;101091.13;5084571;27;70919;-34
2022/11/25 02:11:39;;;;;;;5.30;5.00;;;;;;;29.45;70.89;101120.44;5084134;27;65453;-35
2022/11/25 02:14:15;;;;;;;6.32;5.03;;;;;;;29.38;71.08;101115.03;5086813;27;69636;-35
2022/11/25 02:16:46;;;;;;;5.95;5.55;;;;;;;29.45;70.89;101115.03;5089196;27;65439;-34
2022/11/25 02:19:22;;;;;;;;;;;;;;;29.15;72.31;101120.78;5079405;27;70247;-36
2022/11/25 02:22:02;;;;;;;5.57;5.18;;;;;;;29.32;71.16;101108.56;5083334;27;66128;-35
2022/11/25 02:24:44;;;;;;;5.82;5.28;;;;;;;28.85;71.01;101026.56;5079630;27;69638;-35
2022/11/25 02:27:18;;;;;;;5.60;5.18;;;;;;;29.54;70.49;101127.34;5081993;27;66267;-34
2022/11/25 02:29:50;;;;;;;5.85;5.45;;;;;;;29.56;70.77;101128.81;5065579;27;70388;-36
2022/11/25 02:32:22;;;;;;;5.57;5.22;;;;;;;29.60;70.37;101123.81;5092167;27;66142;-34
2022/11/25 02:34:54;;;;;;;6.43;5.50;;;;;;;29.59;70.48;101122.16;5064347;27;70891;-34
2022/11/25 02:37:26;;;;;;;6.82;6.07;;;;;;;29.59;70.25;101122.16;5083570;27;66258;-34
2022/11/25 02:39:57;;;;;;;7.75;6.82;;;;;;;29.52;70.31;101115.88;5082561;27;70002;-34
2022/11/25 02:42:30;;;;;;;6.90;6.40;;;;;;;29.59;70.60;101122.16;5082571;27;66750;-36
2022/11/25 02:45:02;;;;;;;6.57;6.10;;;;;;;29.58;70.02;101110.47;5088932;27;69619;-34
2022/11/25 02:47:33;;;;;;;6.13;5.63;;;;;;;29.60;69.94;101107.59;5081864;27;66581;-38
2022/11/25 02:50:05;;;;;;;;;;;;;;;29.39;70.86;101122.94;5082118;27;70499;-32
2022/11/25 02:52:36;;;;;;;6.32;5.93;;;;;;;29.66;70.42;101114.06;5083725;27;67619;-32
2022/11/25 02:55:08;;;;;;;6.00;5.70;;;;;;;29.68;69.79;101107.41;5084091;27;69132;-33
2022/11/25 02:57:41;;;;;;;6.93;6.32;;;;;;;29.64;69.95;101091.81;5080603;27;66602;-33
2022/11/25 03:00:13;;;;;;;7.00;5.50;;;;;;;29.74;70.01;101109.28;5085518;27;69978;-33
2022/11/25 03:02:44;;;;;;;7.05;6.25;;;;;;;29.79;69.70;101112.22;5084100;27;65735;-32
2022/11/25 03:05:15;;;;;;;6.73;6.17;;;;;;;29.82;69.33;101103.69;5088041;27;70013;-32
2022/11/25 03:07:47;;;;;;;6.95;6.30;;;;;;;29.31;69.56;101020.47;5088061;27;65537;-33
2022/11/25 03:10:21;;;;;;;5.95;5.63;;;;;;;29.90;69.65;101101.81;5080931;27;69355;-32
2022/11/25 03:12:53;;;;;;;6.25;5.75;;;;;;;29.92;69.59;101097.00;5087199;27;66529;-33
2022/11/25 03:15:25;;;;;;;6.53;6.13;;;;;;;29.93;69.32;101096.81;5086940;27;69554;-33
2022/11/25 03:17:57;;;;;;;10.85;6.40;;;;;;;29.84;68.85;101079.97;5078517;27;66499;-33
2022/11/25 03:20:29;;;;;;;6.65;6.25;;;;;;;29.98;69.54;101088.09;5100602;27;69879;-32
2022/11/25 03:23:00;;;;;;;6.40;6.00;;;;;;;29.76;68.90;101058.56;5082619;27;65366;-32
2022/11/25 03:25:32;;;;;;;6.93;6.18;;;;;;;29.89;68.91;101068.50;5082600;27;70383;-32
2022/11/25 03:28:04;;;;;;;6.57;6.07;;;;;;;30.05;68.73;101083.50;5081400;27;65836;-32
2022/11/25 03:30:36;;;;;;;6.38;5.97;;;;;;;30.06;68.98;101079.72;5084832;27;69334;-33
2022/11/25 03:33:07;;;;;;;6.22;5.82;;;;;;;30.06;68.90;101071.59;5081537;27;65324;-32
2022/11/25 03:35:39;;;;;;;6.47;5.90;;;;;;;30.10;68.97;101064.75;5085522;27;70364;-35
2022/11/25 03:38:10;;;;;;;6.55;6.15;;;;;;;30.09;68.76;101060.41;5080045;27;65958;-34
2022/11/25 03:40:42;;;;;;;6.13;5.55;;;;;;;30.13;68.91;101058.09;5081696;27;69228;-33
2022/11/25 03:43:13;;;;;;;6.07;5.60;;;;;;;30.15;68.58;101056.00;5081160;27;65050;-32
2022/11/25 03:45:49;;;;;;;6.45;5.82;;;;;;;30.17;68.56;101046.66;5085010;27;70226;-33
2022/11/25 03:48:20;;;;;;;9.25;6.03;;;;;;;30.21;68.61;101039.75;5080928;27;66231;-33
2022/11/25 03:50:51;;;;;;;7.22;6.55;;;;;;;30.20;68.84;101048.94;5080463;27;70220;-33
2022/11/25 03:53:25;;;;;;;7.63;6.43;;;;;;;30.21;68.54;101044.34;5093398;27;65420;-33
2022/11/25 03:56:00;;;;;;;6.45;5.53;;;;;;;30.11;68.35;101012.31;5084219;27;69487;-33
2022/11/25 03:58:32;;;;;;;6.35;5.85;;;;;;;30.22;68.52;101033.31;5085914;27;66216;-33
2022/11/25 04:01:05;;;;;;;7.03;6.43;;;;;;;30.23;68.49;101026.88;5100748;27;70422;-32
2022/11/25 04:03:36;;;;;;;7.78;5.88;;;;;;;30.26;68.11;101023.75;5095119;27;65246;-33
2022/11/25 04:06:09;;;;;;;6.60;6.00;;;;;;;30.25;68.23;101019.38;5088198;27;70037;-34
2022/11/25 04:08:40;;;;;;;;;;;;;;;29.96;68.95;101023.38;5078978;27;66307;-33
2022/11/25 04:11:12;;;;;;;6.70;6.20;;;;;;;30.17;68.75;101011.47;5092097;27;70035;-33
2022/11/25 04:13:48;;;;;;;6.22;5.82;;;;;;;30.30;68.21;101024.16;5094009;27;66452;-33
2022/11/25 04:16:26;;;;;;;6.82;6.35;;;;;;;30.31;68.32;101024.97;5083497;27;69663;-32
2022/11/25 04:18:57;;;;;;;7.18;5.50;;;;;;;30.21;68.46;101001.88;5085472;27;66722;-32
2022/11/25 04:21:29;;;;;;;6.20;5.80;;;;;;;30.23;68.25;100999.81;5089643;27;69516;-33
2022/11/25 04:24:02;;;;;;;6.35;5.82;;;;;;;30.28;68.39;101008.13;5077343;28;65446;-32
2022/11/25 04:26:35;;;;;;;6.15;5.75;;;;;;;30.23;68.11;100991.72;5081376;27;70027;-32
2022/11/25 04:29:06;;;;;;;5.75;5.38;;;;;;;30.35;67.86;101001.88;5096417;27;67667;-33
2022/11/25 04:31:37;;;;;;;;;;;;;;;30.04;68.93;101003.38;5074083;27;70124;-32
2022/11/25 04:34:09;;;;;;;6.30;5.80;;;;;;;30.35;67.94;101001.88;5086573;27;66639;-32
2022/11/25 04:36:41;;;;;;;6.25;5.75;;;;;;;30.35;68.51;100991.03;5080151;27;70138;-33
2022/11/25 04:39:17;;;;;;;6.45;5.93;;;;;;;30.39;68.33;100979.56;5085484;27;66663;-33
2022/11/25 04:42:30;;;;;;;6.00;5.60;;;;;;;30.39;67.80;100970.63;5084735;27;70191;-33
2022/11/25 04:44:46;;;;;;;6.68;6.22;;;;;;;30.44;67.77;100978.91;5082176;27;65845;-33
2022/11/25 04:47:39;;;;;;;5.90;5.50;;;;;;;30.37;68.15;100956.44;5070604;27;68900;-33
2022/11/25 04:50:17;;;;;;;6.18;5.68;;;;;;;30.06;67.82;100903.91;5087215;27;65730;-33
2022/11/25 04:52:58;;;;;;;6.43;5.82;;;;;;;30.49;68.12;100965.56;5092050;27;69611;-33
2022/11/25 04:55:31;;;;;;;6.82;5.70;;;;;;;30.52;67.74;100959.72;5083264;27;66512;-32
2022/11/25 04:58:06;;;;;;;6.13;5.63;;;;;;;30.40;67.89;100939.81;5081843;27;70642;-32
2022/11/25 05:00:39;;;;;;;6.72;6.22;;;;;;;30.55;67.76;100956.59;5083460;27;65755;-34
2022/11/25 05:03:13;;;;;;;5.25;4.95;;;;;;;30.47;67.71;100935.19;5083982;27;69789;-34
2022/11/25 05:05:45;;;;;;;5.65;5.15;;;;;;;30.60;67.53;100955.94;5083303;27;66059;-32
2022/11/25 05:08:16;;;;;;;;;;;;;;;30.30;68.34;100955.66;5087348;27;70323;-35
2022/11/25 05:10:47;;;;;;;6.55;5.32;;;;;;;30.49;67.70;100931.22;5089028;27;66302;-36
2022/11/25 05:13:19;;;;;;;6.03;5.63;;;;;;;30.52;67.90;100929.94;5089892;27;69234;-36
2022/11/25 05:15:50;;;;;;;6.03;5.57;;;;;;;30.38;67.65;100887.78;5074007;27;66320;-33
2022/11/25 05:18:24;;;;;;;5.88;5.47;;;;;;;30.71;67.42;100937.13;5090789;27;69420;-33
2022/11/25 05:20:59;;;;;;;5.78;5.40;;;;;;;30.72;67.50;100936.06;5084492;27;65272;-33
2022/11/25 05:23:32;;;;;;;7.35;5.63;;;;;;;30.77;67.83;100931.91;5084480;27;70750;-34
2022/11/25 05:26:05;;;;;;;5.43;5.03;;;;;;;30.67;67.43;100916.97;5102849;27;66359;-33
2022/11/25 05:28:44;;;;;;;5.90;5.40;;;;;;;30.81;67.59;100930.41;5090333;27;70341;-33
2022/11/25 05:31:15;;;;;;;5.72;5.32;;;;;;;30.77;67.45;100919.19;5081529;27;66377;-34
2022/11/25 05:33:47;;;;;;;8.20;5.60;;;;;;;30.84;67.03;100924.56;5064566;27;70000;-33
2022/11/25 05:36:19;;;;;;;5.18;4.75;;;;;;;30.88;67.53;100917.69;5080742;27;65528;-33
2022/11/25 05:38:51;;;;;;;5.60;5.20;;;;;;;30.80;66.97;100904.41;5081028;27;70074;-33
2022/11/25 05:41:32;;;;;;;5.47;4.97;;;;;;;30.75;67.32;100891.47;5087748;27;66518;-33
2022/11/25 05:44:04;;;;;;;5.25;4.82;;;;;;;30.91;67.20;100909.13;5094592;27;69809;-35
2022/11/25 05:46:36;;;;;;;5.97;4.82;;;;;;;30.91;67.10;100903.69;5090131;27;66575;-33
2022/11/25 05:49:08;;;;;;;4.35;4.05;;;;;;;30.68;67.11;100856.34;5086686;27;69167;-33
2022/11/25 05:51:40;;;;;;;5.07;4.78;;;;;;;30.96;67.02;100890.31;5084567;27;65333;-35
2022/11/25 05:54:14;;;;;;;5.40;4.95;;;;;;;30.99;66.99;100881.75;5086582;27;70320;-33
2022/11/25 05:56:46;;;;;;;5.15;4.60;;;;;;;30.71;67.10;100828.00;5088470;27;66321;-32
2022/11/25 05:59:49;;;;;;;4.75;4.45;;;;;;;30.95;66.86;100856.13;5077210;27;70568;-32
2022/11/25 06:02:39;;;;;;;4.70;4.30;;;;;;;30.94;67.04;100840.94;5084957;27;65929;-32
2022/11/25 06:05:14;;;;;;;8.90;5.07;;;;;;;30.98;66.96;100844.03;5086520;27;70216;-32
2022/11/25 06:07:45;;;;;;;4.55;4.25;;;;;;;30.97;66.59;100837.78;5075397;27;65469;-33
2022/11/25 06:10:18;;;;;;;4.60;4.28;;;;;;;30.89;66.93;100819.13;5085627;27;69590;-32
2022/11/25 06:12:52;;;;;;;4.63;4.32;;;;;;;30.91;66.82;100825.16;5091986;27;66261;-32
2022/11/25 06:15:25;;;;;;;4.57;4.18;;;;;;;31.08;67.13;100852.50;5079492;27;69821;-33
2022/11/25 06:17:59;;;;;;;4.65;3.60;;;;;;;30.89;66.63;100809.09;5084691;27;66504;-33
2022/11/25 06:20:32;;;;;;;5.03;4.63;;;;;;;31.06;66.48;100836.44;5086174;27;69522;-32
2022/11/25 06:23:06;;;;;;;4.30;3.90;;;;;;;31.08;66.99;100831.66;5084936;27;66598;-35
2022/11/25 06:25:38;;;;;;;4.20;3.90;;;;;;;31.10;66.53;100815.19;5089518;27;70271;-35
2022/11/25 06:28:10;;;;;;;7.65;4.20;;;;;;;31.03;66.97;100795.44;5066933;27;66346;-35
2022/11/25 06:30:47;;;;;;;4.20;3.80;;;;;;;31.13;66.93;100812.84;5090570;27;70397;-32
2022/11/25 06:33:32;;;;;;;3.83;3.63;;;;;;;31.16;66.93;100793.44;5076404;27;66385;-33
2022/11/25 06:36:15;;;;;;;4.53;4.00;;;;;;;31.07;66.71;100783.94;5082667;27;70623;-33
2022/11/25 06:38:52;;;;;;;7.28;3.58;;;;;;;31.21;66.34;100794.66;5087427;27;65837;-33
2022/11/25 06:41:23;;;;;;;3.80;3.50;;;;;;;31.20;66.84;100792.97;5083045;27;70081;-32
2022/11/25 06:43:55;;;;;;;4.40;4.00;;;;;;;31.13;66.81;100772.19;5083645;27;66089;-33
2022/11/25 06:46:27;;;;;;;3.50;3.17;;;;;;;31.19;66.55;100780.50;5084382;27;69335;-33
2022/11/25 06:48:59;;;;;;;3.85;3.35;;;;;;;31.30;66.47;100782.44;5091344;27;65811;-33
2022/11/25 06:51:31;;;;;;;3.58;3.38;;;;;;;31.29;66.52;100775.38;5078486;27;70718;-33
2022/11/25 06:54:02;;;;;;;3.33;3.13;;;;;;;31.33;66.60;100787.41;5082825;27;65720;-32
2022/11/25 06:56:34;;;;;;;5.45;3.60;;;;;;;31.34;66.51;100789.06;5084157;27;70108;-33
2022/11/25 06:59:06;;;;;;;3.75;3.33;;;;;;;31.31;66.27;100786.81;5082594;27;66118;-34
2022/11/25 07:01:38;;;;;;;3.35;3.15;;;;;;;31.22;66.59;100769.19;5090380;27;70779;-33
2022/11/25 07:04:10;;;;;;;3.22;3.03;;;;;;;31.32;66.49;100780.34;5087267;27;66626;-33
2022/11/25 07:06:42;;;;;;;4.45;3.80;;;;;;;31.30;66.38;100787.88;5082936;27;70480;-32
2022/11/25 07:09:13;;;;;;;4.22;3.55;;;;;;;31.36;66.27;100787.00;5092566;27;66132;-33
2022/11/25 07:11:45;;;;;;;3.20;2.88;;;;;;;31.38;66.36;100779.47;5084855;27;69261;-32
2022/11/25 07:14:16;;;;;;;3.55;3.13;;;;;;;31.32;66.50;100764.91;5079464;27;65287;-32
2022/11/25 07:16:48;;;;;;;3.40;3.20;;;;;;;31.37;66.04;100766.97;5081954;27;68154;-32
2022/11/25 07:19:19;;;;;;;3.20;3.00;;;;;;;31.39;66.19;100781.13;5091401;27;65166;-32
2022/11/25 07:21:51;;;;;;;;;;;;;;;31.12;66.84;100780.53;5083983;27;69570;-32
2022/11/25 07:24:22;;;;;;;3.83;2.80;;;;;;;31.09;66.39;100718.69;5083106;27;66789;-32
2022/11/25 07:26:54;;;;;;;3.78;3.47;;;;;;;31.44;66.17;100772.31;5080977;27;69318;-33
2022/11/25 07:29:26;;;;;;;3.45;3.20;;;;;;;31.40;66.40;100761.09;5081223;27;65075;-34
2022/11/25 07:32:18;;;;;;;3.92;3.63;;;;;;;31.51;66.07;100760.34;5087321;27;69683;-32
2022/11/25 07:34:51;;;;;;;3.30;3.00;;;;;;;31.52;65.93;100762.00;5088700;27;65771;-39
2022/11/25 07:37:22;;;;;;;3.30;3.00;;;;;;;31.56;66.27;100759.63;5091421;27;69799;-35
2022/11/25 07:39:54;;;;;;;3.22;3.03;;;;;;;31.55;66.23;100742.56;5086172;27;65732;-33
2022/11/25 07:42:26;;;;;;;3.53;3.20;;;;;;;31.62;66.02;100750.59;5085956;27;69973;-32
2022/11/25 07:44:57;;;;;;;3.63;3.33;;;;;;;31.65;65.81;100747.44;5085526;27;65254;-32
2022/11/25 07:47:45;;;;;;;3.22;2.95;;;;;;;31.56;65.84;100733.34;5059263;27;70097;-33
2022/11/25 07:50:16;;;;;;;2.95;2.75;;;;;;;31.68;66.07;100749.69;5089752;27;66010;-32
2022/11/25 07:52:48;;;;;;;3.88;2.60;;;;;;;31.74;65.83;100756.91;5089058;27;70307;-33
2022/11/25 07:55:19;;;;;;;5.57;3.00;;;;;;;31.78;65.92;100762.69;5084681;27;66273;-32
2022/11/25 07:57:51;;;;;;;3.72;2.75;;;;;;;31.80;65.73;100757.88;5089851;27;69969;-32
2022/11/25 08:00:22;;;;;;;6.18;2.78;;;;;;;31.82;65.54;100742.22;5082862;27;66049;-32
2022/11/25 08:02:55;;;;;;;4.18;2.72;;;;;;;31.90;65.82;100752.75;5090645;27;70204;-33
2022/11/25 08:05:27;;;;;;;7.35;2.70;;;;;;;31.91;65.48;100753.56;5086351;27;66286;-32
2022/11/25 08:07:58;;;;;;;3.05;2.85;;;;;;;31.91;65.44;100751.69;5090566;27;70540;-33
2022/11/25 08:10:29;;;;;;;4.40;2.80;;;;;;;31.87;65.39;100750.47;5087072;27;65848;-33
2022/11/25 08:13:01;;;;;;;2.92;2.67;;;;;;;31.92;65.82;100753.34;5084465;27;69259;-33
2022/11/25 08:15:33;;;;;;;4.60;2.58;;;;;;;31.92;65.58;100769.63;5084038;27;65683;-33
2022/11/25 08:18:05;;;;;;;3.50;2.63;;;;;;;31.96;65.47;100781.69;5084508;27;70488;-33
2022/11/25 08:20:36;;;;;;;3.65;3.25;;;;;;;31.79;65.63;100751.63;5083171;27;65895;-32
2022/11/25 08:23:08;;;;;;;2.85;2.65;;;;;;;31.85;65.29;100760.72;5091285;27;70419;-34
2022/11/25 08:25:40;;;;;;;2.90;2.58;;;;;;;31.66;65.03;100726.56;5088329;27;66160;-33
2022/11/25 08:28:19;;;;;;;3.92;2.20;;;;;;;31.95;65.28;100765.63;5093766;27;69776;-33
2022/11/25 08:30:50;;;;;;;3.10;2.70;;;;;;;31.97;65.55;100772.47;5088245;27;65204;-32
2022/11/25 08:33:21;;;;;;;;;;;;;;;31.74;66.03;100775.06;5080823;27;70305;-33
2022/11/25 08:35:53;;;;;;;2.70;2.50;;;;;;;32.00;65.34;100788.28;5084538;27;66833;-34
2022/11/25 08:38:25;;;;;;;3.78;2.80;;;;;;;32.03;65.25;100771.53;5083375;27;70708;-33
2022/11/25 08:41:00;;;;;;;4.97;2.78;;;;;;;31.99;65.12;100770.38;5083847;27;43647;-34
2022/11/25 08:43:32;;;;;;;2.58;2.38;;;;;;;32.01;65.34;100768.25;5086225;27;70725;-34
2022/11/25 08:46:11;;;;;;;2.67;2.35;;;;;;;32.04;65.09;100756.94;5086607;27;66615;-33
2022/11/25 08:48:46;;;;;;;2.53;2.33;;;;;;;32.10;65.34;100765.22;5085220;27;70472;-33
2022/11/25 08:51:20;;;;;;;5.25;2.47;;;;;;;32.03;65.13;100765.31;5081682;27;66501;-32
2022/11/25 08:53:52;;;;;;;2.97;2.55;;;;;;;32.12;64.96;100774.75;5083727;27;70372;-32
2022/11/25 08:56:25;;;;;;;3.17;2.72;;;;;;;31.95;65.02;100744.75;5089347;27;66347;-33
2022/11/25 08:58:58;;;;;;;3.45;2.47;;;;;;;32.16;65.27;100767.00;5088242;27;70695;-32
2022/11/25 09:01:30;;;;;;;2.90;2.63;;;;;;;32.15;65.11;100771.59;5089166;27;65843;-36
2022/11/25 09:04:01;;;;;;;3.33;2.40;;;;;;;32.13;65.16;100765.56;5082822;27;70311;-36
2022/11/25 09:06:34;;;;;;;3.10;2.90;;;;;;;32.13;65.33;100764.75;5084557;27;66353;-32
2022/11/25 09:09:06;;;;;;;5.82;3.13;;;;;;;32.07;65.00;100754.81;5081281;27;69906;-33
2022/11/25 09:11:37;;;;;;;3.00;2.70;;;;;;;32.12;65.02;100763.09;5082479;27;66329;-33
2022/11/25 09:14:08;;;;;;;3.50;3.03;;;;;;;32.14;65.61;100767.22;5079863;27;70210;-35
2022/11/25 09:16:41;;;;;;;15.57;3.83;;;;;;;32.13;66.20;100764.75;5085843;27;66487;-34
2022/11/25 09:19:12;;;;;;;7.28;3.67;;;;;;;32.04;66.76;100751.50;5091936;27;69290;-31
2022/11/25 09:21:44;;;;;;;9.32;3.90;;;;;;;32.03;66.58;100760.69;5088611;27;66699;-34
2022/11/25 09:24:15;;;;;;;5.20;3.70;;;;;;;32.13;67.11;100771.00;5085924;27;70097;-32
2022/11/25 09:26:48;;;;;;;4.65;3.70;;;;;;;32.12;67.51;100784.78;5078754;27;65545;-36
2022/11/25 09:29:19;;;;;;;9.00;3.80;;;;;;;32.05;67.75;100793.03;5084315;27;69860;-33
2022/11/25 09:31:50;;;;;;;;;;;;;;;31.73;68.41;100792.38;5081710;27;65543;-34
2022/11/25 09:34:23;;;;;;;8.35;4.15;;;;;;;31.78;68.83;100789.81;5080563;27;69624;-35
2022/11/25 09:36:55;;;;;;;19.95;4.90;;;;;;;31.71;69.42;100805.38;5082562;27;66104;-32
2022/11/25 09:39:28;;;;;;;14.10;4.70;;;;;;;31.60;69.61;100805.06;5084501;27;70365;-33
2022/11/25 09:49:02;;;;;;;7.25;4.38;;;;;;;31.21;71.08;100789.22;5086695;27;66064;-31
2022/11/25 09:51:54;;;;;;;7.28;4.85;;;;;;;31.36;71.33;100822.22;5085401;27;70293;-32
2022/11/25 09:54:37;;;;;;;8.80;4.85;;;;;;;31.27;71.56;100810.81;5070145;27;65482;-32
2022/11/25 09:57:33;;;;;;;8.23;4.68;;;;;;;31.25;71.91;100823.75;5083709;27;70222;-32
2022/11/25 10:00:06;;;;;;;6.93;4.63;;;;;;;31.36;71.63;100846.63;5079548;27;66199;-32
2022/11/25 10:02:47;;;;;;;12.55;4.55;;;;;;;31.36;71.86;100854.75;5091134;27;69357;-33
2022/11/25 10:05:26;;;;;;;6.47;4.03;;;;;;;31.32;71.62;100850.81;5090900;27;65295;-33
2022/11/25 10:08:09;;;;;;;8.32;4.35;;;;;;;31.34;71.55;100862.25;5086602;27;69873;-33
2022/11/25 10:10:52;;;;;;;6.97;5.00;;;;;;;30.98;71.86;100811.53;5087043;27;66428;-32
2022/11/25 10:13:43;;;;;;;5.50;4.63;;;;;;;30.91;72.05;100792.63;5085542;27;70065;-31
2022/11/25 10:16:33;;;;;;;8.43;5.82;;;;;;;30.76;71.88;100773.16;5085311;27;66312;-32
2022/11/25 10:19:32;;;;;;;8.93;5.25;;;;;;;31.23;72.28;100853.00;5088893;27;69543;-32
2022/11/25 10:22:27;;;;;;;11.15;5.95;;;;;;;31.19;72.05;100856.38;5085547;27;65600;-34
2022/11/25 10:25:20;;;;;;;4.88;4.55;;;;;;;30.36;71.95;100713.94;5079725;27;70496;-31
2022/11/25 10:27:55;;;;;;;8.35;5.60;;;;;;;31.22;72.12;100858.63;5088518;27;65794;-34
2022/11/25 10:30:35;;;;;;;8.63;5.75;;;;;;;31.21;72.15;100857.78;5083006;27;70114;-31
2022/11/25 10:33:20;;;;;;;16.23;5.05;;;;;;;30.64;72.54;100767.63;5084661;27;66572;-32
2022/11/25 10:35:56;;;;;;;9.43;5.30;;;;;;;30.69;72.11;100768.63;5083555;27;69299;-34
2022/11/25 10:38:55;;;;;;;7.13;4.93;;;;;;;30.68;72.21;100768.88;5083853;27;66069;-31
2022/11/25 10:41:31;;;;;;;5.32;4.93;;;;;;;31.13;72.19;100855.38;5085253;27;70226;-33
2022/11/25 10:44:03;;;;;;;7.38;4.85;;;;;;;31.14;72.24;100860.56;5082004;27;66678;-32
2022/11/25 10:46:58;;;;;;;15.07;5.30;;;;;;;30.75;72.41;100787.75;5083939;27;69620;-35
2022/11/25 10:50:00;;;;;;;17.83;4.70;;;;;;;31.13;72.17;100869.75;5083948;27;65225;-35
2022/11/25 10:52:50;;;;;;;17.98;4.72;;;;;;;31.10;72.59;100867.47;5082465;27;70026;-35
2022/11/25 10:55:25;;;;;;;11.65;4.38;;;;;;;30.70;72.44;100800.09;5081031;27;66099;-36
2022/11/25 10:57:57;;;;;;;20.67;4.35;;;;;;;31.15;72.34;100878.50;5084418;27;70119;-36
2022/11/25 11:00:37;;;;;;;22.23;4.40;;;;;;;30.96;72.03;100857.81;5084701;27;65363;-35
2022/11/25 11:03:26;;;;;;;17.83;3.55;;;;;;;31.05;72.18;100874.63;5082835;27;69961;-35
2022/11/25 11:05:58;;;;;;;22.67;4.47;;;;;;;31.15;72.27;100897.47;5081902;27;66186;-34
2022/11/25 11:08:42;;;;;;;4.95;3.92;;;;;;;31.00;72.10;100896.94;5081765;27;70188;-36
2022/11/25 11:11:19;;;;;;;10.55;4.13;;;;;;;31.11;72.59;100898.94;5083869;27;65830;-35
2022/11/25 11:13:59;;;;;;;10.40;4.45;;;;;;;30.68;72.57;100840.09;5088556;27;70391;-36
2022/11/25 11:16:36;;;;;;;10.02;3.78;;;;;;;31.11;73.00;100911.66;5082946;27;66308;-39
2022/11/25 11:19:24;;;;;;;14.18;3.63;;;;;;;31.06;72.99;100916.91;5083681;27;70035;-39
2022/11/25 11:21:57;;;;;;;6.95;4.13;;;;;;;31.09;72.92;100933.56;5081982;27;66535;-36
2022/11/25 11:24:34;;;;;;;5.65;4.10;;;;;;;31.06;73.76;100939.41;5081241;27;69921;-36
2022/11/25 11:27:24;;;;;;;6.03;4.00;;;;;;;31.07;73.98;100951.91;5079295;27;66097;-34
2022/11/25 11:30:30;;;;;;;8.07;3.92;;;;;;;30.71;73.80;100931.72;5079041;27;70638;-36
2022/11/25 11:33:29;;;;;;;5.78;3.60;;;;;;;30.93;74.03;100972.03;5044544;27;66733;-35
2022/11/25 11:36:21;;;;;;;7.85;3.13;;;;;;;30.94;74.23;100979.09;5082247;27;72210;-34
2022/11/25 11:38:55;;;;;;;5.32;3.38;;;;;;;31.01;73.70;100985.31;5080674;27;66379;-40
2022/11/25 11:41:47;;;;;;;15.15;4.07;;;;;;;31.00;74.71;100978.22;5086937;27;69993;-40
2022/11/25 11:45:00;;;;;;;11.70;4.30;;;;;;;30.91;74.85;100984.94;5084961;27;66620;-36
2022/11/25 11:47:58;;;;;;;6.32;4.03;;;;;;;30.87;75.12;100991.84;5064231;27;69716;-36
2022/11/25 11:50:37;;;;;;;5.50;4.10;;;;;;;30.92;74.58;100998.28;5085529;27;65411;-45
2022/11/25 11:53:32;;;;;;;11.30;3.67;;;;;;;30.98;74.35;101002.00;5086344;27;70392;-38
2022/11/25 11:56:09;;;;;;;6.28;3.10;;;;;;;31.04;73.61;101005.72;5081984;27;65785;-35
2022/11/25 11:59:13;;;;;;;7.85;4.13;;;;;;;31.09;72.93;101009.44;5088730;27;70647;-37
2022/11/25 12:02:11;;;;;;;9.82;4.45;;;;;;;30.96;72.23;100993.25;5088246;27;66639;-34
2022/11/25 12:04:52;;;;;;;6.60;4.28;;;;;;;31.13;72.05;101020.66;5082848;27;68752;-35
2022/11/25 12:08:01;;;;;;;6.70;4.50;;;;;;;31.11;71.76;101029.00;5079612;27;65630;-36
2022/11/25 12:10:33;;;;;;;8.27;4.00;;;;;;;31.19;71.59;101029.78;5080962;27;70063;-35
2022/11/25 12:13:40;;;;;;;7.30;4.30;;;;;;;30.78;71.54;100971.44;5082822;27;66040;-36
2022/11/25 12:16:48;;;;;;;9.02;4.80;;;;;;;31.10;72.33;101032.75;5089049;27;70846;-38